Historyczne dane pomiarowe

Dodano dane terminowe – wersja testowa.

Dane z okresu 1951-2018

Wersja bazy: 1.29 [2019-01-10, lista zmian], aktualizacja planowana na 2019-02-07

Dane meteo z obszaru Polski uzyskane na podstawie danych udostępnionych przez Instytut Meteorologii i Gospodarki Wodnej – Państwowy Instytut Badawczy.

 

Wybierz Datę:    

       

TemperaturaWilgotnośćWiatrCiśnienieOpadyŚniegCzas trwania zjawisk
 Stacja t tx tn tng RH VA  wxwx mslp ppp RRR   cm mm wxwxwxwxwxwxwx
1986-12-13 -1.5 0.9 -2.5- 93.5- 8.0 0.7---- 0.0-- 3---------
1986-12-14 -2.9 -1.8 -4.1- 90.5- 8.0 1.3---- 1.0-- 3---------
1986-12-15 -0.4 0.6 -3.0- 98.3- 8.0 1.0---- 0.0-- 6---------
1986-12-16 0.0 0.3 -1.4- 98.0- 8.0 3.3---- 4.6-- 6---------
1986-12-17 1.9 2.6 -0.1- 87.8- 8.0 4.0---- 1.2-- 12---------
1986-12-18 1.0 1.9 0.1- 96.3- 8.0 1.7---- 3.3-- 8---------
1986-12-19 0.9 2.3 0.2- 97.0- 8.0 3.0---- 12.4-- 6---------
1986-12-20 -0.2 0.9 -1.1- 95.0- 8.0 4.0---- 0.5-- 10---------
1986-12-21 -4.6 -0.8 -6.7- 92.5- 8.0 2.0---- 1.1-- 12---------
1986-12-22 -4.1 -3.8 -8.0- 88.5- 8.0 3.3---- 1.3-- 14---------
1986-12-23 -4.9 -3.2 -6.7- 88.5- 8.0 3.0---- 0.7-- 18---------
1986-12-24 -8.2 -6.4 -9.3- 87.0- 8.0 1.3---- 1.2-- 20---------
1986-12-25 -9.6 -8.2-11.1- 91.3- 8.0 1.0---- 0.0-- 22---------
1986-12-26-11.4 -7.5-12.6- 92.0- 8.0 1.7---- 0.4-- 22---------
1986-12-27 -8.2 -5.2-12.8- 92.8- 8.0 2.0---- 1.3-- 22---------
1986-12-28 -1.3 -1.0 -5.5- 95.5- 8.0 3.7---- 3.2-- 25---------
1986-12-29 -0.9 2.0 -8.3- 93.0- 7.0 1.3---- 5.4-- 34---------
1986-12-30 -1.6 1.8 -2.2- 88.8- 7.3 4.0---- 0.3-- 38---------
1986-12-31 -3.5 -1.9 -6.3- 85.0- 8.0 2.3---- 0.0-- 38---------
1987-01-01 -5.9 -2.6 -7.7- 84.8- 8.0 3.3---- 4.3-- 38---------
1987-01-02-19.6 -7.4-24.7- 90.3- 1.3 0.0---- 0.0-- 42---------
1987-01-03 -8.8 -5.6-26.8- 88.3- 5.3 1.0---- 1.8-- 42---------
1987-01-04-17.7 -5.8-22.2- 89.5- 0.0 0.0---- 0.0-- 44---------
1987-01-05 -8.6 -6.2-22.5- 88.8- 8.0 3.3---- 5.4-- 44---------
1987-01-06-12.0 -1.7-15.6- 91.0- 8.0 4.0---- 0.8-- 48---------
1987-01-07-26.0-15.3-28.8- 86.5- 0.0 1.0---- 0.0-- 48---------
1987-01-08-20.3-16.9-35.0- 79.0- 4.0 1.0---- 0.0-- 48---------
1987-01-09-18.8-14.5-21.6- 85.5- 6.7 5.0---- 0.2-- 48---------
1987-01-10-24.1-21.3-31.0- 84.8- 2.7 1.0---- 0.0-- 48---------
1987-01-11-24.2-22.3-27.4- 88.5- 7.3 3.7---- 1.3-- 48---------
441.6 ms

 

Źródłem pochodzenia danych jest Instytut Meteorologii i Gospodarki Wodnej – Państwowy Instytut Badawczy. Dane Instytutu Meteorologii i Gospodarki Wodnej – Państwowego Instytutu Badawczego zostały przetworzone.

Dane źródłowe można odnaleźć na stronie https://dane.imgw.pl